Enterprise, KS

10:18 PM CST on December 27, 2014 (GMT -0600)
Rural Kansas | Change Station
CLOSE
Current Station
Personal Weather Station
Location: Abilene, KS
Elevation: 1306 ft
Nearby Weather Stations

Elev 1306 ft 39.03 °N, 97.30 °W | Updated 7 minutes ago

Clear
Clear
17.4 °F
Feels Like 17 °F
N
0.0
Wind Variable Wind from SW

Today
High -- | Low -- °F
--% Chance of Precip.
Yesterday
High -- | Low -- °F
Precip. -- in
7:45 AM 5:13 PM
Waxing Crescent, 43% visible
Pressure 30.34 in
Visibility 10.0 miles
Clouds Clear
Windchill 17 °F
Dew Point 15 °F
Humidity 89%
Rainfall 0.00 in
Snow Depth Not available.
UV 0 out of 12
Pollen .10 out of 12
Air Quality Not available.
Flu Activity Not available.
METAR KFRI 280358Z AUTO 22003KT 10SM CLR M06/M08 A3030 RMK AO2 SLP274 T10641080

More Conditions Fewer Conditions

Pressure 30.34 in
Visibility 10.0 miles
Clouds Clear
Windchill 17 °F
Dew Point 15 °F
Humidity 89%
Rainfall 0.00 in
Snow Depth Not available.
UV 0 out of 12
Pollen .10 out of 12
Air Quality Not available.
Flu Activity Not available.
METAR KFRI 280358Z AUTO 22003KT 10SM CLR M06/M08 A3030 RMK AO2 SLP274 T10641080

More Conditions Fewer Conditions

10-Day Weather Forecast

Almanac

Astronomy

Dec. 27, 2014 Rise Set
Actual Time
Civil Twilight
Nautical Twilight
Astronomical Twilight
Moon
Length of Visible Light
Length of Day
Tomorrow will be .
, % of the Moon is Illuminated

Today's Extremes

State Highs State Lows

Community

WunderPhotos

Upload Photos

1,781,187 photos uploaded!

WunderBlogs® & News

Nearby

Air Quality

  Air Quality AQ Index Pollutant
Not available.

Snow Depth

Station Depth Elevation

Earthquake Activity

City Distance Mag. Time & Date
Minimum magnitude displayed is 2.5.

Coastal Water Temperatures

Place Temperature

Nearby Weather Stations